createdAt,value
2019-01-04T00:01:29.160Z,71.60
2019-01-04T00:04:03.688Z,71.12
2019-01-04T00:06:35.328Z,72.47
2019-01-04T00:09:09.143Z,72.50
2019-01-04T00:11:40.787Z,71.46
2019-01-04T00:14:13.002Z,71.59
2019-01-04T00:16:45.466Z,72.09
2019-01-04T00:19:19.498Z,70.67
2019-01-04T00:21:51.252Z,71.36
2019-01-04T00:24:24.835Z,71.89
2019-01-04T00:26:57.623Z,71.18
2019-01-04T00:29:31.018Z,70.93
2019-01-04T00:32:02.582Z,71.18
2019-01-04T00:34:34.201Z,72.14
2019-01-04T00:37:05.758Z,72.34
2019-01-04T00:39:39.590Z,72.53
2019-01-04T00:42:11.240Z,72.77
2019-01-04T00:44:42.833Z,72.45
2019-01-04T00:47:14.453Z,73.22
2019-01-04T00:49:46.029Z,72.80
2019-01-04T00:52:17.600Z,73.38
2019-01-04T00:54:49.276Z,72.54
2019-01-04T00:58:09.279Z,72.64
2019-01-04T01:01:46.353Z,73.10
2019-01-04T01:05:21.056Z,73.29
2019-01-04T01:08:51.664Z,74.60
2019-01-04T01:12:16.330Z,74.07
2019-01-04T01:15:34.263Z,74.04
2019-01-04T01:18:44.610Z,74.46
2019-01-04T01:22:11.280Z,74.53
2019-01-04T01:26:03.080Z,75.22
2019-01-04T01:29:31.781Z,75.54
2019-01-04T01:33:05.192Z,76.26
2019-01-04T01:36:28.470Z,73.48
2019-01-04T01:39:59.575Z,76.18
2019-01-04T01:43:35.985Z,76.36
2019-01-04T01:46:53.973Z,76.14
2019-01-04T01:50:38.566Z,76.28
2019-01-04T01:53:10.406Z,76.23
2019-01-04T01:55:41.981Z,76.68
2019-01-04T01:58:13.972Z,75.26
2019-01-04T02:00:45.704Z,75.94
2019-01-04T02:03:17.385Z,75.70
2019-01-04T02:05:49.053Z,76.45
2019-01-04T02:08:20.667Z,75.64
2019-01-04T02:10:52.307Z,75.42
2019-01-04T02:13:23.865Z,75.99
2019-01-04T02:15:55.433Z,75.43
2019-01-04T02:18:27.030Z,74.72
2019-01-04T02:20:58.598Z,74.94
2019-01-04T02:23:30.183Z,75.82
2019-01-04T02:26:01.831Z,75.09
2019-01-04T02:28:33.407Z,76.17
2019-01-04T02:31:05.124Z,76.24
2019-01-04T02:33:36.779Z,74.60
2019-01-04T02:36:08.516Z,76.02
2019-01-04T02:38:40.113Z,77.08
2019-01-04T02:41:11.699Z,75.51
2019-01-04T02:43:43.373Z,75.90
2019-01-04T02:46:14.955Z,75.67
2019-01-04T02:48:46.599Z,76.40
2019-01-04T02:51:18.184Z,75.82
2019-01-04T02:53:49.874Z,74.78
2019-01-04T02:56:21.511Z,72.22
2019-01-04T02:58:53.112Z,71.85
2019-01-04T03:01:24.668Z,74.29
2019-01-04T03:03:56.256Z,74.83
2019-01-04T03:06:27.941Z,74.73
2019-01-04T03:08:59.523Z,76.50
2019-01-04T03:11:31.112Z,75.71
2019-01-04T03:14:02.748Z,74.77
2019-01-04T03:16:34.401Z,75.04
2019-01-04T03:19:05.993Z,75.45
2019-01-04T03:21:37.717Z,75.72
2019-01-04T03:24:09.348Z,72.18
2019-01-04T03:26:41.080Z,71.95
2019-01-04T03:29:12.672Z,74.57
2019-01-04T03:31:44.258Z,74.00
2019-01-04T03:34:15.827Z,72.90
2019-01-04T03:36:47.461Z,74.91
2019-01-04T03:39:19.061Z,72.28
2019-01-04T03:41:50.619Z,73.48
2019-01-04T03:44:22.223Z,72.87
2019-01-04T03:46:53.839Z,72.01
2019-01-04T03:49:25.386Z,73.21
2019-01-04T03:51:57.007Z,73.42
2019-01-04T03:54:28.653Z,74.87
2019-01-04T03:57:00.336Z,72.37
2019-01-04T03:59:31.946Z,71.90
2019-01-04T04:02:03.579Z,73.16
2019-01-04T04:04:35.356Z,74.03
2019-01-04T04:07:07.029Z,74.23
2019-01-04T04:09:38.647Z,75.13
2019-01-04T04:12:10.340Z,73.67
2019-01-04T04:14:42.032Z,74.66
2019-01-04T04:17:13.616Z,73.91
2019-01-04T04:19:45.195Z,74.03
2019-01-04T04:22:17.726Z,72.78
2019-01-04T04:24:49.339Z,76.18
2019-01-04T04:27:21.093Z,76.75
2019-01-04T04:29:52.638Z,75.70
2019-01-04T04:32:24.256Z,76.55
2019-01-04T04:34:55.859Z,77.70
2019-01-04T04:37:27.448Z,75.55
2019-01-04T04:39:59.027Z,74.92
2019-01-04T04:42:30.629Z,73.89
2019-01-04T04:45:02.190Z,76.58
2019-01-04T04:47:33.886Z,74.73
2019-01-04T04:50:05.511Z,73.92
2019-01-04T04:52:37.184Z,72.73
2019-01-04T04:55:08.811Z,73.31
2019-01-04T04:57:40.575Z,74.93
2019-01-04T05:00:12.245Z,73.64
2019-01-04T05:02:44.076Z,75.25
2019-01-04T05:05:15.696Z,74.21
2019-01-04T05:07:47.440Z,74.58
2019-01-04T05:10:19.066Z,73.50
2019-01-04T05:12:50.699Z,74.98
2019-01-04T05:15:22.341Z,73.25
2019-01-04T05:17:54.009Z,71.58
2019-01-04T05:20:25.648Z,74.07
2019-01-04T05:22:57.237Z,73.15
2019-01-04T05:25:28.825Z,73.96
2019-01-04T05:28:00.454Z,73.23
2019-01-04T05:30:32.116Z,72.78
2019-01-04T05:33:03.716Z,72.78
2019-01-04T05:35:35.327Z,73.24
2019-01-04T05:38:07.003Z,71.26
2019-01-04T05:40:38.649Z,72.88
2019-01-04T05:43:10.300Z,70.92
2019-01-04T05:45:41.976Z,71.69
2019-01-04T05:48:13.636Z,71.67
2019-01-04T05:50:45.237Z,72.38
2019-01-04T05:53:16.950Z,71.27
2019-01-04T05:55:48.572Z,70.81
2019-01-04T05:58:20.268Z,71.10
2019-01-04T06:00:51.874Z,72.47
2019-01-04T06:03:23.468Z,72.50
2019-01-04T06:05:55.054Z,73.07
2019-01-04T06:08:26.634Z,74.45
2019-01-04T06:10:58.257Z,73.19
2019-01-04T06:13:29.895Z,74.24
2019-01-04T06:16:01.511Z,75.26
2019-01-04T06:18:33.161Z,76.00
2019-01-04T06:21:04.907Z,76.90
2019-01-04T06:23:36.580Z,76.50
2019-01-04T06:26:08.235Z,77.62
2019-01-04T06:28:39.855Z,76.17
2019-01-04T06:31:11.525Z,77.44
2019-01-04T06:33:43.241Z,77.56
2019-01-04T06:36:14.833Z,77.90
2019-01-04T06:38:46.544Z,78.81
2019-01-04T06:41:18.281Z,78.78
2019-01-04T06:43:49.955Z,79.90
2019-01-04T06:46:21.525Z,79.36
2019-01-04T06:48:53.213Z,79.42
2019-01-04T06:51:27.722Z,79.71
2019-01-04T06:53:58.196Z,80.01
2019-01-04T06:56:29.810Z,80.74
2019-01-04T06:59:01.415Z,79.25
2019-01-04T07:01:33.024Z,79.86
2019-01-04T07:04:04.756Z,81.20
2019-01-04T07:06:36.383Z,80.33
2019-01-04T07:09:08.169Z,80.54
2019-01-04T07:11:39.878Z,81.12
2019-01-04T07:14:11.447Z,81.21
2019-01-04T07:16:43.148Z,80.74
2019-01-04T07:19:14.878Z,81.55
2019-01-04T07:21:46.528Z,81.09
2019-01-04T07:24:18.168Z,80.84
2019-01-04T07:26:49.807Z,80.89
2019-01-04T07:29:21.551Z,81.35
2019-01-04T07:31:53.246Z,81.34
2019-01-04T07:34:25.037Z,83.57
2019-01-04T07:36:56.685Z,79.80
2019-01-04T07:39:28.269Z,77.77
2019-01-04T07:41:59.855Z,76.74
2019-01-04T07:44:31.447Z,73.42
2019-01-04T07:47:03.070Z,71.90
2019-01-04T07:49:34.691Z,71.99
2019-01-04T07:52:06.241Z,72.03
2019-01-04T07:54:38.087Z,73.07
2019-01-04T07:57:09.802Z,73.04
2019-01-04T07:59:41.455Z,72.91
2019-01-04T08:02:48.133Z,72.44
2019-01-04T08:05:25.013Z,73.17
2019-01-04T08:07:56.742Z,72.25
2019-01-04T08:10:28.332Z,73.32
2019-01-04T08:12:59.960Z,73.85
2019-01-04T08:15:31.605Z,74.06
2019-01-04T08:18:03.211Z,73.68
2019-01-04T08:20:34.890Z,73.81
2019-01-04T08:23:06.507Z,73.69
2019-01-04T08:25:38.223Z,73.66
2019-01-04T08:28:09.864Z,75.22
2019-01-04T08:30:41.428Z,75.16
2019-01-04T08:33:13.012Z,74.98
2019-01-04T08:35:44.597Z,75.86
2019-01-04T08:38:17.242Z,75.76
2019-01-04T08:40:48.843Z,74.74
2019-01-04T08:43:20.432Z,74.65
2019-01-04T08:45:53.102Z,74.30
2019-01-04T08:48:24.808Z,74.08
2019-01-04T08:50:56.451Z,74.92
2019-01-04T08:54:00.470Z,74.50
2019-01-04T08:56:35.755Z,74.45
2019-01-04T08:59:07.436Z,75.30
2019-01-04T09:01:39.119Z,75.26
2019-01-04T09:04:10.726Z,75.31
2019-01-04T09:06:42.299Z,74.19
2019-01-04T09:09:14.113Z,75.59
2019-01-04T09:11:45.727Z,73.57
2019-01-04T09:14:18.405Z,75.59
2019-01-04T09:16:49.978Z,78.18
2019-01-04T09:19:21.548Z,78.18
2019-01-04T09:21:53.121Z,78.19
2019-01-04T09:24:24.673Z,76.77
2019-01-04T09:26:56.267Z,76.37
2019-01-04T09:29:27.871Z,76.24
2019-01-04T09:31:59.451Z,76.88
2019-01-04T09:34:31.049Z,76.75
2019-01-04T09:37:02.778Z,76.67
2019-01-04T09:39:34.377Z,76.73
2019-01-04T09:42:15.513Z,76.75
2019-01-04T09:44:47.931Z,77.37
2019-01-04T09:47:19.505Z,76.71
2019-01-04T09:49:51.209Z,78.17
2019-01-04T09:52:22.795Z,79.30
2019-01-04T09:54:54.705Z,79.76
2019-01-04T09:57:26.431Z,80.43
2019-01-04T09:59:59.059Z,80.40
2019-01-04T10:02:31.643Z,81.14
2019-01-04T10:05:03.240Z,81.22
2019-01-04T10:07:35.008Z,80.25
2019-01-04T10:10:09.208Z,80.86
2019-01-04T10:12:40.945Z,81.78
2019-01-04T10:15:16.167Z,82.07
2019-01-04T10:17:47.826Z,82.20
2019-01-04T10:20:19.466Z,83.22
2019-01-04T10:22:51.196Z,83.33
2019-01-04T10:25:23.038Z,83.49
2019-01-04T10:27:55.709Z,83.39
2019-01-04T10:30:28.919Z,83.45
2019-01-04T10:33:00.487Z,82.74
2019-01-04T10:35:32.118Z,83.50
2019-01-04T10:38:03.711Z,83.12
2019-01-04T10:40:35.319Z,82.87
2019-01-04T10:43:07.003Z,83.12
2019-01-04T10:45:38.605Z,81.90
2019-01-04T10:48:10.290Z,82.75
2019-01-04T10:50:41.877Z,82.31
2019-01-04T10:53:13.484Z,81.88
2019-01-04T10:55:45.056Z,80.72
2019-01-04T10:58:16.639Z,81.19
2019-01-04T11:00:48.263Z,81.13
2019-01-04T11:03:19.907Z,81.13
2019-01-04T11:05:51.498Z,81.17
2019-01-04T11:08:23.145Z,81.68
2019-01-04T11:10:54.708Z,81.69
2019-01-04T11:13:26.373Z,81.92
2019-01-04T11:15:57.966Z,81.47
2019-01-04T11:18:29.608Z,79.22
2019-01-04T11:21:04.837Z,80.04
2019-01-04T11:24:40.188Z,81.66
2019-01-04T11:27:45.218Z,81.56
2019-01-04T11:30:50.862Z,82.06
2019-01-04T11:34:38.253Z,81.89
2019-01-04T11:37:54.494Z,81.95
2019-01-04T11:41:08.479Z,81.87
2019-01-04T11:44:46.040Z,81.84
2019-01-04T11:48:03.016Z,81.78
2019-01-04T11:51:20.213Z,81.75
2019-01-04T11:53:51.768Z,82.07
2019-01-04T11:56:23.420Z,82.77
2019-01-04T11:58:55.062Z,83.08
2019-01-04T12:01:26.896Z,83.21
2019-01-04T12:04:02.197Z,83.36
2019-01-04T12:06:34.097Z,83.15
2019-01-04T12:09:08.525Z,83.52
2019-01-04T12:11:40.172Z,83.29
2019-01-04T12:14:11.765Z,83.97
2019-01-04T12:16:43.322Z,84.06
2019-01-04T12:19:14.977Z,84.03
2019-01-04T12:21:46.586Z,83.58
2019-01-04T12:24:18.201Z,83.53
2019-01-04T12:26:49.788Z,84.39
2019-01-04T12:29:21.381Z,84.73
2019-01-04T12:31:53.081Z,85.42
2019-01-04T12:34:25.992Z,85.45
2019-01-04T12:36:57.592Z,85.84
2019-01-04T12:39:29.170Z,85.87
2019-01-04T12:42:00.856Z,85.94
2019-01-04T12:44:32.554Z,85.91
2019-01-04T12:47:04.329Z,86.13
2019-01-04T12:49:36.032Z,86.32
2019-01-04T12:52:09.290Z,86.23
2019-01-04T12:54:40.957Z,85.87
2019-01-04T12:57:12.574Z,85.74
2019-01-04T12:59:44.331Z,86.08
2019-01-04T13:02:15.926Z,87.16
2019-01-04T13:04:47.535Z,87.32
2019-01-04T13:07:19.274Z,87.77
2019-01-04T13:09:50.897Z,87.54
2019-01-04T13:12:24.423Z,87.38
2019-01-04T13:14:56.269Z,87.38
2019-01-04T13:17:28.579Z,87.00
2019-01-04T13:20:01.226Z,86.15
2019-01-04T13:22:34.094Z,86.24
2019-01-04T13:25:07.985Z,86.03
2019-01-04T13:27:39.833Z,85.86
2019-01-04T13:30:11.722Z,86.27
2019-01-04T13:32:43.608Z,86.39
2019-01-04T13:35:15.231Z,85.82
2019-01-04T13:37:46.876Z,86.47
2019-01-04T13:40:18.626Z,86.37
2019-01-04T13:42:50.574Z,86.35
2019-01-04T13:45:22.291Z,86.11
2019-01-04T13:47:53.901Z,86.28
2019-01-04T13:50:25.498Z,86.77
2019-01-04T13:52:57.159Z,86.77
2019-01-04T13:55:28.743Z,86.91
2019-01-04T13:58:01.312Z,87.11
2019-01-04T14:00:34.031Z,86.69
2019-01-04T14:03:05.758Z,86.56
2019-01-04T14:05:37.502Z,86.94
2019-01-04T14:08:09.249Z,87.37
2019-01-04T14:10:40.872Z,87.36
2019-01-04T14:13:12.586Z,87.52
2019-01-04T14:15:44.236Z,86.74
2019-01-04T14:18:15.856Z,86.92
2019-01-04T14:20:47.443Z,87.06
2019-01-04T14:23:19.033Z,87.37
2019-01-04T14:25:50.698Z,86.37
2019-01-04T14:28:22.388Z,86.44
2019-01-04T14:30:54.117Z,86.88
2019-01-04T14:33:25.722Z,87.19
2019-01-04T14:35:57.356Z,87.08
2019-01-04T14:38:29.169Z,87.20
2019-01-04T14:41:00.721Z,87.47
2019-01-04T14:43:32.815Z,87.24
2019-01-04T14:46:04.425Z,88.29
2019-01-04T14:48:36.129Z,83.98
2019-01-04T14:51:07.911Z,85.07
2019-01-04T14:53:39.479Z,84.69
2019-01-04T14:56:11.358Z,86.70
2019-01-04T14:58:42.993Z,86.95
2019-01-04T15:01:14.734Z,87.37
2019-01-04T15:03:46.458Z,87.45
2019-01-04T15:06:18.126Z,87.29
2019-01-04T15:08:49.864Z,87.10
2019-01-04T15:11:21.475Z,87.23
2019-01-04T15:13:53.077Z,87.46
2019-01-04T15:16:24.826Z,87.24
2019-01-04T15:18:56.605Z,87.60
2019-01-04T15:21:28.204Z,87.32
2019-01-04T15:23:59.846Z,87.26
2019-01-04T15:26:31.521Z,87.26
2019-01-04T15:29:03.131Z,87.24
2019-01-04T15:31:34.738Z,87.46
2019-01-04T15:34:06.395Z,87.99
2019-01-04T15:36:38.234Z,88.45
2019-01-04T15:39:10.243Z,88.77
2019-01-04T15:41:41.955Z,88.40
2019-01-04T15:44:15.957Z,88.35
2019-01-04T15:46:47.655Z,88.26
2019-01-04T15:49:19.338Z,87.95
2019-01-04T15:51:51.101Z,88.14
2019-01-04T15:54:22.700Z,88.59
2019-01-04T15:56:54.278Z,88.46
2019-01-04T15:59:25.969Z,88.05
2019-01-04T16:01:57.700Z,87.61
2019-01-04T16:04:29.614Z,87.87
2019-01-04T16:07:01.318Z,88.20
2019-01-04T16:09:32.986Z,86.94
2019-01-04T16:12:04.786Z,87.51
2019-01-04T16:14:36.701Z,87.57
2019-01-04T16:17:12.062Z,88.13
2019-01-04T16:19:42.074Z,88.22
2019-01-04T16:22:13.706Z,88.63
2019-01-04T16:24:45.311Z,88.03
2019-01-04T16:27:17.020Z,88.55
2019-01-04T16:29:48.616Z,88.35
2019-01-04T16:32:20.400Z,88.83
2019-01-04T16:34:52.360Z,88.70
2019-01-04T16:37:24.035Z,88.78
2019-01-04T16:39:56.596Z,88.91
2019-01-04T16:42:28.271Z,89.55
2019-01-04T16:45:00.026Z,89.34
2019-01-04T16:47:31.793Z,89.10
2019-01-04T16:50:03.797Z,88.71
2019-01-04T16:52:35.512Z,88.51
2019-01-04T16:55:09.486Z,88.03
2019-01-04T16:57:41.200Z,87.82
2019-01-04T17:00:12.993Z,86.86
2019-01-04T17:02:47.416Z,87.02
2019-01-04T17:05:19.389Z,86.91
2019-01-04T17:07:57.117Z,88.43
2019-01-04T17:10:28.743Z,88.53
2019-01-04T17:13:00.440Z,87.87
2019-01-04T17:15:32.118Z,86.79
2019-01-04T17:18:03.698Z,86.73
2019-01-04T17:20:35.455Z,86.24
2019-01-04T17:23:07.031Z,87.09
2019-01-04T17:25:38.654Z,87.69
2019-01-04T17:28:10.332Z,87.91
2019-01-04T17:30:41.909Z,88.10
2019-01-04T17:33:13.559Z,88.07
2019-01-04T17:35:46.774Z,88.54
2019-01-04T17:38:18.483Z,88.75
2019-01-04T17:40:50.179Z,87.86
2019-01-04T17:43:22.004Z,88.42
2019-01-04T17:45:53.715Z,88.66
2019-01-04T17:48:25.522Z,88.03
2019-01-04T17:50:57.221Z,88.67
2019-01-04T17:53:28.977Z,88.67
2019-01-04T17:56:00.717Z,88.64
2019-01-04T17:58:32.453Z,90.00
2019-01-04T18:01:04.335Z,88.51
2019-01-04T18:03:36.167Z,87.86
2019-01-04T18:06:07.975Z,87.17
2019-01-04T18:08:39.970Z,86.28
2019-01-04T18:11:11.749Z,86.08
2019-01-04T18:13:43.511Z,85.91
2019-01-04T18:16:34.996Z,85.08
2019-01-04T18:19:05.429Z,86.25
2019-01-04T18:21:42.652Z,86.93
2019-01-04T18:24:14.392Z,87.36
2019-01-04T18:26:46.074Z,87.36
2019-01-04T18:29:23.616Z,88.04
2019-01-04T18:31:55.302Z,87.92
2019-01-04T18:34:26.978Z,87.08
2019-01-04T18:36:58.673Z,87.56
2019-01-04T18:39:30.394Z,87.28
2019-01-04T18:42:02.131Z,86.26
2019-01-04T18:44:34.411Z,86.42
2019-01-04T18:47:06.798Z,86.33
2019-01-04T18:49:44.806Z,84.77
2019-01-04T18:52:16.817Z,85.06
2019-01-04T18:54:52.260Z,84.76
2019-01-04T18:57:27.064Z,85.85
2019-01-04T19:00:00.161Z,85.05
2019-01-04T19:02:32.942Z,85.60
2019-01-04T19:05:05.694Z,85.50
2019-01-04T19:07:37.719Z,86.22
2019-01-04T19:10:11.085Z,86.25
2019-01-04T19:12:42.797Z,86.79
2019-01-04T19:15:14.629Z,87.08
2019-01-04T19:17:47.608Z,86.94
2019-01-04T19:20:19.313Z,86.29
2019-01-04T19:22:50.920Z,85.58
2019-01-04T19:25:22.578Z,85.98
2019-01-04T19:27:54.230Z,85.56
2019-01-04T19:30:26.022Z,86.19
2019-01-04T19:32:57.780Z,86.50
2019-01-04T19:35:29.476Z,85.33
2019-01-04T19:38:01.296Z,85.33
2019-01-04T19:40:33.271Z,84.98
2019-01-04T19:43:05.052Z,85.03
2019-01-04T19:45:36.833Z,84.64
2019-01-04T19:48:08.800Z,85.81
2019-01-04T19:50:40.469Z,85.42
2019-01-04T19:53:12.206Z,86.76
2019-01-04T19:55:43.978Z,86.57
2019-01-04T19:58:15.645Z,86.76
2019-01-04T20:00:47.522Z,86.53
2019-01-04T20:03:19.360Z,86.72
2019-01-04T20:07:34.485Z,86.09
2019-01-04T20:11:31.350Z,85.90
2019-01-04T20:15:46.648Z,86.73
2019-01-04T20:19:00.361Z,86.27
2019-01-04T20:21:50.436Z,86.07
2019-01-04T20:24:44.186Z,85.97
2019-01-04T20:27:30.323Z,87.05
2019-01-04T20:30:36.011Z,85.99
2019-01-04T20:33:25.475Z,87.60
2019-01-04T20:36:15.559Z,85.91
2019-01-04T20:39:24.344Z,84.71
2019-01-04T20:42:13.548Z,85.45
2019-01-04T20:45:02.935Z,85.48
2019-01-04T20:47:52.869Z,85.91
2019-01-04T20:50:40.840Z,85.49
2019-01-04T20:53:37.269Z,85.50
2019-01-04T20:56:26.682Z,84.42
2019-01-04T20:59:32.265Z,85.00
2019-01-04T21:02:21.451Z,85.36
2019-01-04T21:05:10.526Z,83.78
2019-01-04T21:08:01.100Z,85.79
2019-01-04T21:10:51.638Z,86.06
2019-01-04T21:13:48.259Z,84.96
2019-01-04T21:16:47.513Z,84.19
2019-01-04T21:19:44.268Z,84.27
2019-01-04T21:22:33.376Z,84.94
2019-01-04T21:25:26.827Z,84.41
2019-01-04T21:28:17.427Z,85.06
2019-01-04T21:31:07.980Z,84.82
2019-01-04T21:33:57.117Z,86.07
2019-01-04T21:36:48.178Z,86.47
2019-01-04T21:39:37.735Z,85.18
2019-01-04T21:42:26.438Z,83.67
2019-01-04T21:45:15.627Z,85.49
2019-01-04T21:48:05.103Z,85.02
2019-01-04T21:50:58.399Z,85.21
2019-01-04T21:54:00.897Z,85.13
2019-01-04T21:56:51.323Z,84.19
2019-01-04T21:59:45.297Z,84.68
2019-01-04T22:02:35.734Z,84.83
2019-01-04T22:05:25.095Z,84.23
2019-01-04T22:08:14.361Z,84.37
2019-01-04T22:11:16.857Z,84.30
2019-01-04T22:14:07.359Z,83.36
2019-01-04T22:16:57.829Z,85.09
2019-01-04T22:19:54.305Z,84.88
2019-01-04T22:22:47.681Z,85.47
2019-01-04T22:25:37.105Z,84.47
2019-01-04T22:28:31.020Z,85.04
2019-01-04T22:31:20.567Z,84.48
2019-01-04T22:34:13.413Z,84.57
2019-01-04T22:36:54.824Z,86.14
2019-01-04T22:39:38.251Z,85.74
2019-01-04T22:42:27.651Z,84.91
2019-01-04T22:45:18.547Z,84.80
2019-01-04T22:48:22.130Z,85.16
2019-01-04T22:51:18.478Z,86.27
2019-01-04T22:54:08.036Z,86.33
2019-01-04T22:57:10.364Z,85.55
2019-01-04T23:00:00.868Z,85.12
2019-01-04T23:02:51.625Z,86.06
2019-01-04T23:05:54.131Z,86.59
2019-01-04T23:08:43.332Z,86.78
2019-01-04T23:11:43.062Z,86.05
2019-01-04T23:14:33.486Z,86.04
2019-01-04T23:17:19.939Z,85.41
2019-01-04T23:20:19.473Z,85.99
2019-01-04T23:23:09.953Z,86.92
2019-01-04T23:26:09.502Z,85.94
2019-01-04T23:29:18.111Z,87.44
2019-01-04T23:32:08.531Z,87.59
2019-01-04T23:34:58.123Z,87.77
2019-01-04T23:37:48.569Z,87.72
2019-01-04T23:40:37.969Z,86.78
2019-01-04T23:43:37.247Z,86.72
2019-01-04T23:46:33.996Z,86.45
2019-01-04T23:49:30.602Z,86.41
2019-01-04T23:52:19.583Z,86.55
2019-01-04T23:55:28.132Z,88.13
2019-01-04T23:58:20.291Z,87.61
